createdAt,value
2017-04-15T00:00:22.291Z,22.22
2017-04-15T00:01:21.329Z,22.73
2017-04-15T00:02:20.212Z,22.87
2017-04-15T00:03:19.100Z,23.22
2017-04-15T00:04:18.026Z,21.75
2017-04-15T00:05:16.944Z,22.57
2017-04-15T00:06:15.856Z,22.10
2017-04-15T00:07:14.748Z,22.12
2017-04-15T00:08:13.635Z,22.40
2017-04-15T00:09:13.069Z,22.18
2017-04-15T00:10:11.978Z,22.93
2017-04-15T00:11:10.911Z,22.97
2017-04-15T00:12:09.815Z,22.43
2017-04-15T00:13:08.689Z,23.47
2017-04-15T00:14:07.576Z,23.48
2017-04-15T00:15:06.506Z,23.07
2017-04-15T00:16:06.517Z,23.12
2017-04-15T00:17:05.459Z,23.62
2017-04-15T00:18:04.363Z,23.35
2017-04-15T00:19:03.276Z,23.37
2017-04-15T00:20:02.188Z,23.18
2017-04-15T00:21:01.088Z,23.37
2017-04-15T00:21:59.971Z,24.72
2017-04-15T00:22:58.901Z,23.23
2017-04-15T00:23:57.816Z,22.82
2017-04-15T00:24:56.696Z,22.67
2017-04-15T00:25:55.575Z,22.17
2017-04-15T00:26:54.463Z,22.43
2017-04-15T00:27:53.362Z,23.78
2017-04-15T00:28:52.272Z,23.38
2017-04-15T00:29:51.195Z,23.10
2017-04-15T00:30:50.105Z,22.28
2017-04-15T00:31:48.987Z,22.30
2017-04-15T00:32:47.867Z,22.20
2017-04-15T00:33:46.751Z,21.10
2017-04-15T00:34:45.690Z,21.75
2017-04-15T00:35:44.579Z,22.15
2017-04-15T00:36:43.475Z,22.83
2017-04-15T00:37:42.349Z,22.75
2017-04-15T00:38:41.265Z,22.50
2017-04-15T00:39:40.163Z,21.95
2017-04-15T00:40:39.056Z,22.23
2017-04-15T00:41:37.968Z,22.87
2017-04-15T00:42:36.868Z,21.85
2017-04-15T00:43:35.779Z,22.45
2017-04-15T00:44:34.664Z,21.78
2017-04-15T00:45:33.539Z,20.88
2017-04-15T00:46:32.451Z,21.83
2017-04-15T00:47:31.348Z,22.10
2017-04-15T00:48:30.235Z,21.10
2017-04-15T00:49:29.120Z,20.83
2017-04-15T00:50:28.032Z,20.40
2017-04-15T00:51:26.937Z,21.30
2017-04-15T00:52:25.863Z,20.32
2017-04-15T00:53:24.840Z,20.08
2017-04-15T00:54:23.735Z,20.32
2017-04-15T00:55:22.627Z,21.60
2017-04-15T00:56:21.507Z,20.75
2017-04-15T00:57:20.388Z,20.83
2017-04-15T00:58:19.316Z,22.05
2017-04-15T00:59:18.228Z,22.00
2017-04-15T01:00:17.123Z,21.58
2017-04-15T01:01:16.032Z,21.40
2017-04-15T01:02:14.925Z,21.10
2017-04-15T01:03:13.799Z,20.98
2017-04-15T01:04:12.727Z,19.57
2017-04-15T01:05:11.635Z,21.60
2017-04-15T01:06:10.556Z,20.27
2017-04-15T01:07:09.463Z,20.13
2017-04-15T01:08:08.344Z,19.40
2017-04-15T01:09:07.229Z,20.93
2017-04-15T01:10:06.146Z,20.57
2017-04-15T01:11:05.036Z,20.62
2017-04-15T01:12:03.943Z,21.55
2017-04-15T01:13:02.857Z,22.10
2017-04-15T01:14:01.759Z,22.00
2017-04-15T01:15:00.659Z,22.30
2017-04-15T01:15:59.611Z,22.67
2017-04-15T01:16:58.516Z,23.83
2017-04-15T01:17:57.460Z,23.60
2017-04-15T01:18:56.340Z,23.02
2017-04-15T01:19:55.222Z,23.12
2017-04-15T01:20:54.094Z,22.95
2017-04-15T01:21:53.007Z,22.08
2017-04-15T01:22:51.906Z,23.15
2017-04-15T01:23:50.804Z,22.43
2017-04-15T01:24:49.680Z,22.63
2017-04-15T01:25:48.565Z,23.82
2017-04-15T01:26:47.467Z,23.38
2017-04-15T01:27:46.394Z,23.13
2017-04-15T01:28:45.299Z,23.42
2017-04-15T01:29:44.199Z,24.52
2017-04-15T01:30:43.095Z,23.67
2017-04-15T01:31:42.031Z,24.23
2017-04-15T01:32:41.087Z,25.72
2017-04-15T01:33:40.001Z,25.40
2017-04-15T01:34:38.877Z,25.37
2017-04-15T01:35:37.772Z,25.80
2017-04-15T01:36:36.675Z,26.85
2017-04-15T01:37:35.554Z,25.88
2017-04-15T01:38:34.571Z,25.90
2017-04-15T01:39:33.491Z,27.22
2017-04-15T01:40:32.383Z,25.92
2017-04-15T01:41:31.284Z,27.53
2017-04-15T01:42:30.165Z,27.02
2017-04-15T01:43:29.057Z,27.88
2017-04-15T01:44:27.939Z,28.27
2017-04-15T01:45:26.857Z,27.83
2017-04-15T01:46:25.748Z,29.83
2017-04-15T01:47:24.628Z,28.25
2017-04-15T01:48:23.527Z,29.35
2017-04-15T01:49:22.417Z,28.75
2017-04-15T01:50:21.306Z,27.33
2017-04-15T01:51:20.240Z,27.43
2017-04-15T01:52:19.155Z,27.87
2017-04-15T01:53:18.058Z,29.65
2017-04-15T01:54:16.944Z,27.97
2017-04-15T01:55:15.833Z,28.45
2017-04-15T01:56:14.711Z,27.43
2017-04-15T01:57:13.611Z,27.33
2017-04-15T01:58:12.500Z,27.20
2017-04-15T01:59:11.384Z,27.50
2017-04-15T02:00:10.289Z,27.15
2017-04-15T02:01:09.165Z,27.52
2017-04-15T02:02:08.037Z,26.47
2017-04-15T02:03:07.028Z,26.10
2017-04-15T02:04:05.930Z,26.70
2017-04-15T02:05:04.848Z,26.12
2017-04-15T02:06:03.782Z,26.57
2017-04-15T02:07:02.673Z,26.77
2017-04-15T02:08:01.567Z,26.83
2017-04-15T02:09:00.483Z,27.24
2017-04-15T02:09:59.376Z,26.87
2017-04-15T02:10:58.255Z,26.28
2017-04-15T02:11:57.179Z,26.55
2017-04-15T02:12:56.075Z,26.45
2017-04-15T02:13:55.014Z,26.47
2017-04-15T02:14:53.904Z,26.07
2017-04-15T02:15:52.811Z,27.13
2017-04-15T02:16:51.719Z,25.67
2017-04-15T02:17:50.638Z,26.13
2017-04-15T02:18:49.537Z,25.80
2017-04-15T02:19:48.431Z,27.22
2017-04-15T02:20:47.324Z,27.80
2017-04-15T02:21:46.214Z,27.38
2017-04-15T02:22:45.099Z,25.63
2017-04-15T02:23:43.968Z,26.90
2017-04-15T02:24:42.859Z,27.83
2017-04-15T02:25:41.743Z,27.58
2017-04-15T02:26:40.656Z,27.25
2017-04-15T02:27:39.621Z,27.40
2017-04-15T02:28:38.507Z,26.72
2017-04-15T02:29:37.376Z,27.10
2017-04-15T02:30:36.311Z,27.72
2017-04-15T02:31:35.227Z,28.47
2017-04-15T02:32:34.164Z,28.15
2017-04-15T02:33:33.054Z,27.65
2017-04-15T02:34:31.992Z,29.28
2017-04-15T02:35:30.856Z,29.38
2017-04-15T02:36:29.759Z,29.22
2017-04-15T02:37:28.661Z,30.10
2017-04-15T02:38:27.572Z,31.52
2017-04-15T02:39:26.456Z,29.20
2017-04-15T02:40:25.335Z,30.13
2017-04-15T02:41:24.215Z,28.65
2017-04-15T02:42:23.100Z,29.68
2017-04-15T02:43:22.011Z,31.57
2017-04-15T02:44:20.957Z,32.12
2017-04-15T02:45:19.839Z,31.20
2017-04-15T02:46:18.760Z,32.25
2017-04-15T02:47:17.646Z,30.02
2017-04-15T02:48:16.542Z,30.57
2017-04-15T02:49:15.471Z,31.05
2017-04-15T02:50:14.399Z,31.57
2017-04-15T02:51:13.275Z,32.37
2017-04-15T02:52:12.161Z,30.40
2017-04-15T02:53:11.039Z,31.58
2017-04-15T02:54:09.937Z,34.18
2017-04-15T02:55:08.837Z,33.17
2017-04-15T02:56:07.761Z,32.30
2017-04-15T02:57:06.652Z,33.82
2017-04-15T02:58:05.674Z,34.17
2017-04-15T02:59:04.608Z,34.30
2017-04-15T03:00:03.529Z,32.50
2017-04-15T03:01:02.412Z,35.38
2017-04-15T03:02:01.316Z,34.95
2017-04-15T03:03:00.203Z,34.68
2017-04-15T03:03:59.162Z,33.27
2017-04-15T03:04:58.064Z,34.92
2017-04-15T03:05:56.976Z,35.68
2017-04-15T03:06:55.875Z,35.45
2017-04-15T03:07:54.773Z,38.10
2017-04-15T03:08:53.659Z,37.30
2017-04-15T03:09:52.568Z,35.78
2017-04-15T03:10:51.451Z,36.60
2017-04-15T03:11:50.404Z,37.57
2017-04-15T03:12:49.287Z,38.28
2017-04-15T03:13:48.230Z,37.02
2017-04-15T03:14:47.132Z,36.55
2017-04-15T03:15:46.031Z,37.22
2017-04-15T03:16:44.929Z,38.25
2017-04-15T03:17:43.836Z,37.80
2017-04-15T03:18:42.731Z,36.83
2017-04-15T03:19:41.672Z,36.97
2017-04-15T03:20:40.595Z,38.97
2017-04-15T03:21:39.504Z,41.33
2017-04-15T03:22:38.391Z,39.13
2017-04-15T03:23:37.271Z,38.47
2017-04-15T03:24:36.155Z,41.45
2017-04-15T03:25:35.095Z,40.50
2017-04-15T03:26:33.974Z,40.52
2017-04-15T03:27:32.905Z,39.95
2017-04-15T03:28:31.824Z,40.60
2017-04-15T03:29:30.715Z,41.12
2017-04-15T03:30:29.603Z,40.02
2017-04-15T03:31:28.543Z,39.47
2017-04-15T03:32:27.448Z,40.30
2017-04-15T03:33:26.341Z,42.10
2017-04-15T03:34:25.245Z,40.63
2017-04-15T03:35:24.139Z,41.70
2017-04-15T03:36:23.035Z,40.73
2017-04-15T03:37:21.975Z,40.22
2017-04-15T03:38:20.919Z,40.55
2017-04-15T03:39:19.847Z,41.35
2017-04-15T03:40:18.756Z,40.27
2017-04-15T03:41:17.649Z,41.65
2017-04-15T03:42:17.118Z,40.42
2017-04-15T03:43:16.056Z,38.27
2017-04-15T03:44:14.993Z,38.93
2017-04-15T03:45:13.895Z,40.95
2017-04-15T03:46:12.803Z,40.72
2017-04-15T03:47:11.732Z,39.15
2017-04-15T03:48:10.614Z,39.93
2017-04-15T03:49:09.519Z,42.15
2017-04-15T03:50:08.483Z,41.02
2017-04-15T03:51:07.380Z,41.10
2017-04-15T03:52:06.314Z,40.12
2017-04-15T03:53:05.220Z,43.82
2017-04-15T03:54:04.111Z,43.52
2017-04-15T03:55:03.039Z,45.16
2017-04-15T03:56:01.935Z,41.30
2017-04-15T03:57:00.828Z,42.58
2017-04-15T03:57:59.703Z,42.60
2017-04-15T03:58:58.579Z,42.03
2017-04-15T03:59:57.481Z,41.72
2017-04-15T04:00:56.393Z,43.18
2017-04-15T04:01:55.339Z,45.05
2017-04-15T04:02:54.278Z,44.30
2017-04-15T04:03:53.168Z,42.00
2017-04-15T04:04:52.083Z,43.98
2017-04-15T04:05:50.971Z,43.60
2017-04-15T04:06:49.930Z,42.82
2017-04-15T04:07:48.827Z,42.98
2017-04-15T04:08:47.740Z,43.75
2017-04-15T04:09:46.646Z,43.18
2017-04-15T04:10:45.535Z,44.23
2017-04-15T04:11:44.443Z,43.23
2017-04-15T04:12:43.412Z,42.45
2017-04-15T04:13:42.349Z,44.90
2017-04-15T04:14:41.278Z,44.43
2017-04-15T04:15:40.163Z,44.67
2017-04-15T04:16:42.555Z,41.77
2017-04-15T04:17:41.500Z,46.00
2017-04-15T04:18:40.412Z,44.43
2017-04-15T04:19:39.339Z,45.52
2017-04-15T04:20:39.223Z,44.65
2017-04-15T04:21:38.098Z,43.53
2017-04-15T04:22:36.979Z,45.07
2017-04-15T04:23:35.854Z,44.27
2017-04-15T04:24:34.879Z,44.28
2017-04-15T04:25:33.795Z,45.85
2017-04-15T04:26:32.725Z,45.13
2017-04-15T04:27:31.591Z,46.55
2017-04-15T04:28:30.480Z,46.98
2017-04-15T04:29:29.368Z,44.78
2017-04-15T04:30:28.292Z,44.22
2017-04-15T04:31:27.179Z,43.87
2017-04-15T04:32:26.065Z,46.33
2017-04-15T04:33:24.947Z,47.25
2017-04-15T04:34:23.835Z,46.90
2017-04-15T04:35:22.734Z,47.22
2017-04-15T04:36:21.675Z,46.85
2017-04-15T04:37:20.692Z,46.15
2017-04-15T04:38:19.570Z,45.77
2017-04-15T04:39:18.489Z,47.62
2017-04-15T04:40:17.391Z,47.73
2017-04-15T04:41:16.267Z,47.88
2017-04-15T04:42:15.181Z,46.77
2017-04-15T04:43:14.067Z,45.90
2017-04-15T04:44:12.955Z,45.40
2017-04-15T04:45:11.887Z,47.00
2017-04-15T04:46:10.775Z,47.03
2017-04-15T04:47:09.664Z,45.50
2017-04-15T04:48:08.586Z,47.45
2017-04-15T04:49:07.511Z,47.40
2017-04-15T04:50:06.391Z,46.97
2017-04-15T04:51:05.275Z,45.40
2017-04-15T04:52:04.146Z,45.05
2017-04-15T04:53:03.051Z,49.12
2017-04-15T04:54:02.280Z,48.62
2017-04-15T04:55:01.315Z,45.40
2017-04-15T04:56:00.203Z,48.05
2017-04-15T04:56:59.106Z,47.47
2017-04-15T04:57:57.987Z,46.98
2017-04-15T04:58:56.869Z,47.77
2017-04-15T04:59:55.764Z,47.65
2017-04-15T05:00:54.654Z,46.55
2017-04-15T05:01:53.566Z,48.03
2017-04-15T05:02:52.464Z,48.18
2017-04-15T05:03:51.361Z,48.97
2017-04-15T05:04:50.248Z,47.45
2017-04-15T05:05:49.152Z,48.94
2017-04-15T05:06:48.052Z,48.93
2017-04-15T05:07:46.952Z,48.73
2017-04-15T05:08:45.839Z,48.82
2017-04-15T05:09:44.711Z,48.03
2017-04-15T05:10:43.586Z,50.12
2017-04-15T05:11:42.483Z,51.10
2017-04-15T05:12:41.376Z,48.72
2017-04-15T05:13:40.264Z,49.45
2017-04-15T05:14:39.178Z,49.23
2017-04-15T05:15:38.126Z,49.53
2017-04-15T05:16:37.039Z,49.25
2017-04-15T05:17:35.947Z,50.57
2017-04-15T05:18:34.831Z,52.60
2017-04-15T05:19:33.779Z,50.73
2017-04-15T05:20:32.665Z,50.85
2017-04-15T05:21:31.541Z,49.15
2017-04-15T05:22:30.420Z,50.73
2017-04-15T05:23:29.344Z,51.00
2017-04-15T05:24:28.228Z,48.97
2017-04-15T05:25:27.182Z,51.27
2017-04-15T05:26:26.079Z,52.27
2017-04-15T05:27:24.971Z,51.03
2017-04-15T05:28:23.859Z,52.40
2017-04-15T05:29:22.768Z,52.32
2017-04-15T05:30:21.648Z,53.05
2017-04-15T05:31:20.528Z,53.13
2017-04-15T05:32:19.400Z,53.50
2017-04-15T05:33:18.316Z,53.35
2017-04-15T05:34:17.191Z,54.38
2017-04-15T05:35:16.104Z,53.90
2017-04-15T05:36:15.008Z,53.35
2017-04-15T05:37:13.906Z,52.82
2017-04-15T05:38:12.804Z,53.37
2017-04-15T05:39:11.675Z,53.45
2017-04-15T05:40:10.543Z,52.72
2017-04-15T05:41:09.459Z,55.02
2017-04-15T05:42:08.365Z,54.17
2017-04-15T05:43:07.283Z,53.72
2017-04-15T05:44:06.171Z,54.43
2017-04-15T05:45:05.046Z,56.68
2017-04-15T05:46:03.952Z,56.53
2017-04-15T05:47:02.859Z,56.28
2017-04-15T05:48:01.760Z,54.40
2017-04-15T05:49:00.663Z,55.57
2017-04-15T05:49:59.564Z,54.60
2017-04-15T05:50:58.439Z,54.52
2017-04-15T05:51:57.312Z,54.32
2017-04-15T05:52:56.235Z,55.68
2017-04-15T05:53:55.116Z,55.98
2017-04-15T05:54:54.015Z,54.65
2017-04-15T05:55:52.895Z,53.30
2017-04-15T05:56:51.799Z,55.25
2017-04-15T05:57:50.686Z,55.75
2017-04-15T05:58:49.608Z,53.17
2017-04-15T05:59:48.517Z,55.40
2017-04-15T06:00:47.407Z,54.82
2017-04-15T06:01:46.298Z,56.72
2017-04-15T06:02:45.167Z,56.05
2017-04-15T06:03:44.046Z,56.70
2017-04-15T06:04:42.972Z,55.25
2017-04-15T06:05:41.859Z,54.73
2017-04-15T06:06:40.766Z,53.68
2017-04-15T06:07:39.668Z,54.87
2017-04-15T06:08:38.545Z,53.28
2017-04-15T06:09:37.431Z,54.48
2017-04-15T06:10:36.347Z,52.55
2017-04-15T06:11:35.257Z,54.30
2017-04-15T06:12:34.164Z,53.75
2017-04-15T06:13:33.052Z,53.18
2017-04-15T06:14:31.944Z,53.98
2017-04-15T06:15:30.824Z,53.07
2017-04-15T06:16:29.733Z,52.57
2017-04-15T06:17:28.623Z,51.22
2017-04-15T06:18:27.503Z,50.40
2017-04-15T06:19:26.434Z,50.32
2017-04-15T06:20:25.343Z,49.50
2017-04-15T06:21:24.227Z,47.53
2017-04-15T06:22:23.189Z,49.63
2017-04-15T06:23:22.085Z,48.70
2017-04-15T06:24:21.043Z,49.15
2017-04-15T06:25:19.952Z,51.03
2017-04-15T06:26:18.848Z,48.68
2017-04-15T06:27:17.727Z,47.77
2017-04-15T06:28:16.662Z,47.28
2017-04-15T06:29:15.556Z,47.50
2017-04-15T06:30:14.460Z,46.67
2017-04-15T06:31:13.387Z,44.23
2017-04-15T06:32:12.262Z,44.22
2017-04-15T06:33:11.152Z,46.20
2017-04-15T06:34:10.065Z,45.35
2017-04-15T06:35:08.963Z,44.40
2017-04-15T06:36:07.847Z,44.38
2017-04-15T06:37:06.739Z,43.40
2017-04-15T06:38:05.653Z,41.98
2017-04-15T06:39:05.356Z,40.82
2017-04-15T06:40:04.299Z,40.43
2017-04-15T06:41:03.188Z,40.22
2017-04-15T06:42:02.108Z,39.05
2017-04-15T06:43:01.000Z,39.87
2017-04-15T06:43:59.884Z,37.72
2017-04-15T06:44:58.782Z,37.62
2017-04-15T06:45:57.730Z,36.63
2017-04-15T06:46:56.715Z,34.22
2017-04-15T06:47:55.593Z,35.42
2017-04-15T06:48:54.487Z,33.13
2017-04-15T06:49:53.379Z,33.87
2017-04-15T06:50:52.307Z,33.00
2017-04-15T06:51:51.251Z,31.10
2017-04-15T06:52:50.152Z,28.92
2017-04-15T06:53:49.032Z,30.00
2017-04-15T06:54:47.909Z,28.98
2017-04-15T06:55:46.782Z,28.53
2017-04-15T06:56:45.827Z,26.02
2017-04-15T06:57:44.774Z,24.95
2017-04-15T06:58:43.659Z,26.10
2017-04-15T06:59:42.548Z,23.05
2017-04-15T07:00:41.471Z,24.02
2017-04-15T07:01:40.382Z,22.50
2017-04-15T07:02:45.400Z,22.35
2017-04-15T07:03:44.616Z,20.48
2017-04-15T07:04:43.480Z,21.03
2017-04-15T07:05:42.375Z,19.87
2017-04-15T07:06:41.256Z,19.00
2017-04-15T07:07:40.148Z,19.25
2017-04-15T07:08:39.053Z,19.38
2017-04-15T07:09:37.952Z,17.97
2017-04-15T07:10:36.875Z,18.32
2017-04-15T07:11:35.768Z,18.50
2017-04-15T07:12:34.643Z,17.83
2017-04-15T07:13:33.515Z,16.30
2017-04-15T07:14:32.423Z,17.28
2017-04-15T07:15:31.522Z,17.08
2017-04-15T07:16:30.436Z,17.25
2017-04-15T07:17:29.359Z,18.48
2017-04-15T07:18:28.335Z,17.93
2017-04-15T07:19:27.251Z,16.15
2017-04-15T07:20:26.207Z,15.98
2017-04-15T07:21:25.091Z,17.30
2017-04-15T07:22:23.971Z,18.10
2017-04-15T07:23:23.129Z,18.22
2017-04-15T07:24:22.015Z,18.72
2017-04-15T07:25:20.895Z,18.02
2017-04-15T07:26:19.795Z,18.75
2017-04-15T07:27:18.687Z,18.40
2017-04-15T07:28:17.587Z,19.93
2017-04-15T07:29:16.488Z,19.80
2017-04-15T07:30:15.399Z,20.35
2017-04-15T07:31:14.304Z,21.77
2017-04-15T07:32:13.267Z,22.25
2017-04-15T07:33:12.172Z,20.80
2017-04-15T07:34:11.052Z,22.17
2017-04-15T07:35:09.950Z,22.28
2017-04-15T07:36:08.881Z,23.92
2017-04-15T07:37:07.787Z,24.10
2017-04-15T07:38:06.717Z,23.18
2017-04-15T07:39:05.642Z,24.48
2017-04-15T07:40:04.543Z,24.15
2017-04-15T07:41:03.428Z,25.22
2017-04-15T07:42:02.356Z,25.38
2017-04-15T07:43:01.286Z,25.17
2017-04-15T07:44:00.810Z,25.68
2017-04-15T07:44:59.696Z,25.65
2017-04-15T07:45:58.594Z,24.45
2017-04-15T07:46:57.505Z,26.53
2017-04-15T07:47:56.403Z,26.27
2017-04-15T07:48:55.297Z,23.52
2017-04-15T07:49:54.227Z,25.28
2017-04-15T07:50:53.132Z,26.34
2017-04-15T07:51:52.007Z,25.52
2017-04-15T07:52:50.896Z,25.32
2017-04-15T07:53:49.790Z,23.43
2017-04-15T07:54:48.712Z,23.05
2017-04-15T07:55:47.596Z,23.70
2017-04-15T07:56:46.473Z,23.45
2017-04-15T07:57:45.407Z,22.62
2017-04-15T07:58:44.299Z,22.43
2017-04-15T07:59:43.207Z,23.67
2017-04-15T08:00:42.129Z,21.97
2017-04-15T08:01:41.032Z,21.82
2017-04-15T08:02:39.978Z,21.55
2017-04-15T08:03:38.912Z,20.52
2017-04-15T08:04:37.835Z,19.95
2017-04-15T08:05:36.795Z,21.38
2017-04-15T08:06:35.836Z,19.67
2017-04-15T08:07:34.812Z,19.50
2017-04-15T08:08:33.738Z,19.85
2017-04-15T08:09:32.715Z,19.18
2017-04-15T08:10:31.623Z,19.37
2017-04-15T08:11:30.536Z,18.00
2017-04-15T08:12:29.456Z,18.28
2017-04-15T08:13:28.340Z,17.78
2017-04-15T08:14:27.268Z,18.47
2017-04-15T08:15:26.172Z,18.92
2017-04-15T08:16:25.078Z,18.13
2017-04-15T08:17:23.972Z,17.80
2017-04-15T08:18:23.004Z,16.83
2017-04-15T08:19:21.946Z,17.22
2017-04-15T08:20:20.847Z,17.83
2017-04-15T08:21:19.725Z,19.35
2017-04-15T08:22:18.632Z,19.03
2017-04-15T08:23:17.503Z,18.75
2017-04-15T08:24:16.475Z,19.05
2017-04-15T08:25:15.368Z,19.88
2017-04-15T08:26:14.247Z,20.35
2017-04-15T08:27:13.163Z,19.38
2017-04-15T08:28:12.045Z,19.80
2017-04-15T08:29:10.968Z,20.35
2017-04-15T08:30:09.922Z,19.80
2017-04-15T08:31:08.830Z,20.08
2017-04-15T08:32:07.768Z,20.23
2017-04-15T08:33:06.695Z,18.17
2017-04-15T08:34:05.623Z,19.08
2017-04-15T08:35:04.530Z,17.95
2017-04-15T08:36:03.427Z,18.15
2017-04-15T08:37:02.333Z,17.17
2017-04-15T08:38:01.247Z,18.50
2017-04-15T08:39:00.200Z,16.07
2017-04-15T08:39:59.103Z,15.38
2017-04-15T08:40:58.024Z,16.53
2017-04-15T08:41:56.923Z,14.62
2017-04-15T08:42:55.840Z,13.75
2017-04-15T08:43:54.724Z,12.93
2017-04-15T08:44:53.623Z,12.00
2017-04-15T08:45:52.508Z,13.22
2017-04-15T08:46:51.419Z,13.22
2017-04-15T08:47:50.324Z,13.75
2017-04-15T08:48:49.229Z,13.68
2017-04-15T08:49:48.112Z,12.32
2017-04-15T08:50:47.043Z,13.08
2017-04-15T08:51:45.923Z,12.73
2017-04-15T08:52:45.078Z,13.15
2017-04-15T08:53:43.981Z,13.45
2017-04-15T08:54:42.891Z,13.27
2017-04-15T08:55:41.779Z,12.97
2017-04-15T08:56:40.829Z,11.62
2017-04-15T08:57:39.751Z,11.70
2017-04-15T08:58:38.643Z,11.45
2017-04-15T08:59:37.533Z,10.00
2017-04-15T09:00:36.447Z,10.63
2017-04-15T09:01:35.357Z,10.20
2017-04-15T09:02:34.268Z,8.60
2017-04-15T09:03:33.159Z,8.20
2017-04-15T09:04:32.053Z,8.25
2017-04-15T09:05:30.972Z,7.60
2017-04-15T09:06:29.888Z,8.15
2017-04-15T09:07:28.799Z,8.18
2017-04-15T09:08:27.712Z,8.18
2017-04-15T09:09:26.584Z,7.52
2017-04-15T09:10:25.473Z,7.60
2017-04-15T09:11:24.375Z,8.38
2017-04-15T09:12:23.333Z,7.40
2017-04-15T09:13:22.232Z,7.77
2017-04-15T09:14:21.171Z,8.27
2017-04-15T09:15:20.049Z,8.10
2017-04-15T09:16:18.967Z,8.03
2017-04-15T09:17:17.864Z,8.07
2017-04-15T09:18:16.747Z,8.67
2017-04-15T09:19:15.683Z,7.72
2017-04-15T09:20:14.677Z,7.22
2017-04-15T09:21:13.548Z,7.65
2017-04-15T09:22:12.455Z,7.13
2017-04-15T09:23:11.390Z,7.20
2017-04-15T09:24:10.317Z,6.33
2017-04-15T09:25:09.260Z,6.18
2017-04-15T09:26:08.198Z,6.03
2017-04-15T09:27:07.087Z,5.82
2017-04-15T09:28:05.967Z,5.83
2017-04-15T09:29:04.848Z,5.70
2017-04-15T09:30:03.743Z,4.42
2017-04-15T09:31:02.680Z,4.65
2017-04-15T09:32:01.633Z,4.83
2017-04-15T09:33:00.523Z,4.43
2017-04-15T09:33:59.424Z,4.48
2017-04-15T09:34:58.330Z,4.12
2017-04-15T09:35:57.203Z,3.85
2017-04-15T09:36:56.087Z,3.90
2017-04-15T09:37:55.003Z,3.87
2017-04-15T09:38:53.955Z,3.80
2017-04-15T09:39:52.925Z,3.75
2017-04-15T09:40:51.815Z,3.52
2017-04-15T09:41:50.719Z,3.12
2017-04-15T09:42:49.621Z,3.38
2017-04-15T09:43:48.589Z,3.17
2017-04-15T09:44:47.535Z,3.22
2017-04-15T09:45:46.476Z,2.80
2017-04-15T09:46:45.388Z,2.70
2017-04-15T09:47:44.288Z,2.75
2017-04-15T09:48:43.167Z,2.95
2017-04-15T09:49:42.093Z,2.60
2017-04-15T09:50:41.017Z,2.80
2017-04-15T09:51:39.904Z,2.80
2017-04-15T09:52:38.795Z,2.63
2017-04-15T09:53:37.720Z,2.68
2017-04-15T09:54:36.625Z,2.72
2017-04-15T09:55:35.571Z,2.63
2017-04-15T09:56:34.475Z,2.50
2017-04-15T09:57:33.383Z,2.45
2017-04-15T09:58:32.451Z,2.28
2017-04-15T09:59:31.370Z,2.10
2017-04-15T10:00:30.303Z,2.15
2017-04-15T10:01:29.224Z,2.55
2017-04-15T10:02:28.204Z,2.40
2017-04-15T10:03:27.100Z,2.65
2017-04-15T10:04:26.150Z,2.10
2017-04-15T10:05:25.080Z,1.92
2017-04-15T10:06:24.008Z,1.98
2017-04-15T10:07:23.002Z,2.60
2017-04-15T10:08:21.888Z,2.20
2017-04-15T10:09:20.811Z,2.57
2017-04-15T10:10:19.723Z,2.60
2017-04-15T10:11:18.662Z,1.88
2017-04-15T10:12:17.555Z,1.90
2017-04-15T10:13:16.444Z,2.08
2017-04-15T10:14:15.321Z,2.28
2017-04-15T10:15:14.223Z,2.30
2017-04-15T10:16:13.139Z,1.92
2017-04-15T10:17:12.043Z,2.20
2017-04-15T10:18:11.000Z,2.57
2017-04-15T10:19:09.939Z,2.50
2017-04-15T10:20:08.853Z,2.18
2017-04-15T10:21:07.784Z,2.72
2017-04-15T10:22:06.678Z,2.30
2017-04-15T10:23:05.576Z,1.87
2017-04-15T10:24:04.479Z,2.53
2017-04-15T10:25:03.428Z,2.20
2017-04-15T10:26:02.312Z,1.80
2017-04-15T10:27:01.188Z,2.28
2017-04-15T10:28:00.134Z,2.00
2017-04-15T10:28:59.045Z,1.77
2017-04-15T10:29:57.959Z,2.17
2017-04-15T10:30:56.908Z,2.12
2017-04-15T10:31:55.872Z,2.23
2017-04-15T10:32:54.798Z,1.70
2017-04-15T10:33:53.700Z,1.92
2017-04-15T10:34:52.584Z,2.30
2017-04-15T10:35:51.468Z,2.82
2017-04-15T10:36:50.383Z,2.55
2017-04-15T10:37:49.282Z,2.70
2017-04-15T10:38:48.219Z,2.70
2017-04-15T10:39:47.134Z,2.58
2017-04-15T10:40:46.033Z,2.37
2017-04-15T10:41:44.940Z,3.02
2017-04-15T10:42:43.877Z,2.65
2017-04-15T10:43:42.835Z,2.65
2017-04-15T10:44:41.720Z,2.85
2017-04-15T10:45:40.800Z,2.88
2017-04-15T10:46:39.719Z,3.17
2017-04-15T10:47:38.667Z,3.27
2017-04-15T10:48:37.984Z,2.85
2017-04-15T10:49:36.893Z,3.00
2017-04-15T10:50:35.775Z,3.10
2017-04-15T10:51:34.754Z,2.80
2017-04-15T10:52:33.707Z,2.68
2017-04-15T10:53:32.701Z,2.68
2017-04-15T10:54:31.603Z,2.70
2017-04-15T10:55:30.530Z,2.60
2017-04-15T10:56:29.439Z,2.90
2017-04-15T10:57:28.364Z,3.50
2017-04-15T10:58:27.256Z,3.00
2017-04-15T10:59:26.167Z,2.72
2017-04-15T11:00:25.100Z,2.60
2017-04-15T11:01:24.004Z,2.85
2017-04-15T11:02:22.943Z,2.88
2017-04-15T11:03:21.860Z,3.27
2017-04-15T11:04:20.768Z,2.65
2017-04-15T11:05:19.675Z,2.88
2017-04-15T11:06:18.588Z,2.57
2017-04-15T11:07:17.535Z,2.82
2017-04-15T11:08:17.468Z,2.52
2017-04-15T11:09:16.371Z,2.10
2017-04-15T11:10:15.271Z,2.33
2017-04-15T11:11:14.203Z,2.58
2017-04-15T11:12:13.175Z,2.43
2017-04-15T11:13:12.140Z,2.42
2017-04-15T11:14:11.082Z,2.58
2017-04-15T11:15:10.007Z,2.05
2017-04-15T11:16:08.999Z,1.62
2017-04-15T11:17:07.890Z,1.68
2017-04-15T11:18:06.868Z,1.82
2017-04-15T11:19:05.783Z,1.78
2017-04-15T11:20:04.679Z,1.60
2017-04-15T11:21:03.559Z,1.82
2017-04-15T11:22:02.559Z,1.50
2017-04-15T11:23:01.492Z,2.50
2017-04-15T11:24:00.459Z,1.80
2017-04-15T11:26:30.388Z,2.05
2017-04-15T11:27:29.300Z,2.00
2017-04-15T11:28:28.196Z,1.82
2017-04-15T11:29:27.136Z,1.65
2017-04-15T11:30:26.043Z,1.72
2017-04-15T11:31:24.963Z,1.80
2017-04-15T11:32:23.903Z,1.77
2017-04-15T11:33:22.820Z,1.58
2017-04-15T11:34:21.760Z,1.90
2017-04-15T11:35:20.671Z,1.90
2017-04-15T11:36:19.625Z,1.80
2017-04-15T11:37:18.496Z,2.00
2017-04-15T11:38:17.394Z,1.85
2017-04-15T11:39:16.252Z,1.60
2017-04-15T11:40:15.150Z,1.70
2017-04-15T11:41:14.064Z,1.48
2017-04-15T11:42:12.971Z,1.67
2017-04-15T11:43:11.929Z,2.10
2017-04-15T11:44:10.812Z,2.15
2017-04-15T11:45:09.755Z,1.80
2017-04-15T11:46:08.651Z,2.00
2017-04-15T11:47:07.542Z,1.90
2017-04-15T11:48:06.476Z,1.50
2017-04-15T11:49:05.368Z,1.80
2017-04-15T11:50:04.300Z,1.83
2017-04-15T11:51:03.272Z,1.73
2017-04-15T11:52:02.175Z,1.37
2017-04-15T11:53:01.078Z,1.52
2017-04-15T11:54:00.000Z,1.60
2017-04-15T11:54:58.917Z,1.82
2017-04-15T11:55:57.807Z,1.78
2017-04-15T11:56:56.788Z,1.60
2017-04-15T11:57:55.665Z,1.80
2017-04-15T11:58:54.579Z,1.83
2017-04-15T11:59:53.464Z,1.92
2017-04-15T12:00:52.375Z,1.75
2017-04-15T12:01:51.276Z,1.50
2017-04-15T12:02:50.239Z,1.60
2017-04-15T12:03:49.172Z,1.63
2017-04-15T12:04:48.164Z,1.10
2017-04-15T12:05:47.062Z,1.30
2017-04-15T12:06:45.953Z,1.42
2017-04-15T12:07:44.832Z,1.20
2017-04-15T12:08:43.732Z,1.38
2017-04-15T12:09:42.614Z,1.30
2017-04-15T12:10:41.528Z,1.83
2017-04-15T12:11:40.450Z,2.00
2017-04-15T12:12:39.354Z,2.38
2017-04-15T12:13:38.256Z,2.05
2017-04-15T12:14:37.135Z,1.92
2017-04-15T12:15:36.020Z,2.10
2017-04-15T12:16:34.929Z,2.30
2017-04-15T12:17:33.812Z,1.80
2017-04-15T12:18:32.720Z,2.62
2017-04-15T12:19:31.875Z,1.80
2017-04-15T12:20:30.772Z,1.62
2017-04-15T12:21:29.653Z,1.78
2017-04-15T12:22:28.587Z,1.80
2017-04-15T12:23:27.488Z,1.48
2017-04-15T12:24:26.372Z,1.70
2017-04-15T12:25:25.290Z,1.33
2017-04-15T12:26:24.187Z,1.48
2017-04-15T12:27:23.074Z,1.63
2017-04-15T12:28:22.011Z,1.90
2017-04-15T12:29:20.901Z,1.73
2017-04-15T12:30:19.838Z,2.02
2017-04-15T12:31:18.824Z,1.97
2017-04-15T12:32:17.707Z,2.00
2017-04-15T12:33:16.615Z,1.80
2017-04-15T12:34:15.507Z,1.72
2017-04-15T12:35:14.398Z,2.03
2017-04-15T12:36:13.284Z,2.08
2017-04-15T12:37:12.239Z,2.07
2017-04-15T12:38:11.107Z,2.27
2017-04-15T12:39:09.990Z,2.35
2017-04-15T12:40:08.914Z,2.50
2017-04-15T12:41:07.815Z,1.80
2017-04-15T12:42:06.744Z,1.80
2017-04-15T12:43:05.633Z,2.13
2017-04-15T12:44:04.592Z,2.63
2017-04-15T12:45:03.534Z,2.22
2017-04-15T12:46:02.479Z,2.45
2017-04-15T12:47:01.368Z,2.27
2017-04-15T12:48:00.266Z,2.03